Time;durP1;ratioP1;P1;durP2;ratioP2;P2;SDS_P1;SDS_P2;PMS_P1;PMS_P2;Temp;Humidity;BMP_temperature;BMP_pressure;BME280_temperature;BME280_humidity;BME280_pressure;Samples;Min_cycle;Max_cycle;Signal;HPM_P1;HPM_P2
2022/04/06 00:01:43;;;;;;;13.05;11.85;;;;;;;;;;5015842;28;20040;-66
2022/04/06 00:04:09;;;;;;;12.38;11.15;;;;;;;;;;5018927;28;20034;-67
2022/04/06 00:06:35;;;;;;;12.88;11.90;;;;;;;;;;5012574;28;20167;-66
2022/04/06 00:09:00;;;;;;;13.10;12.05;;;;;;;;;;5019187;28;20502;-66
2022/04/06 00:11:26;;;;;;;13.00;11.98;;;;;;;;;;5013801;28;20034;-67
2022/04/06 00:13:51;;;;;;;12.38;11.38;;;;;;;;;;5017554;28;20048;-67
2022/04/06 00:16:17;;;;;;;12.93;11.82;;;;;;;;;;5012145;28;20444;-67
2022/04/06 00:18:43;;;;;;;13.82;11.85;;;;;;;;;;5015319;28;20065;-67
2022/04/06 00:21:10;;;;;;;13.15;12.10;;;;;;;;;;5014092;28;20366;-67
2022/04/06 00:23:36;;;;;;;13.40;12.25;;;;;;;;;;5015327;28;20087;-67
2022/04/06 00:26:02;;;;;;;13.38;12.18;;;;;;;;;;5026516;28;20034;-67
2022/04/06 00:28:27;;;;;;;12.63;11.63;;;;;;;;;;5013925;28;20117;-67
2022/04/06 00:30:53;;;;;;;13.85;12.68;;;;;;;;;;5021593;28;20117;-67
2022/04/06 00:33:19;;;;;;;13.20;12.00;;;;;;;;;;5019190;28;20037;-67
2022/04/06 00:35:44;;;;;;;12.70;11.70;;;;;;;;;;5022300;28;20491;-67
2022/04/06 00:38:10;;;;;;;12.63;11.57;;;;;;;;;;5013883;28;20405;-67
2022/04/06 00:40:36;;;;;;;13.63;12.48;;;;;;;;;;5013807;28;20042;-67
2022/04/06 00:43:13;;;;;;;12.88;11.80;;;;;;;;;;5011267;28;20038;-67
2022/04/06 00:45:40;;;;;;;12.35;11.45;;;;;;;;;;5019529;28;20720;-67
2022/04/06 00:48:06;;;;;;;12.43;11.43;;;;;;;;;;5013522;28;20116;-67
2022/04/06 00:50:33;;;;;;;12.55;11.48;;;;;;;;;;5020475;28;20049;-67
2022/04/06 00:52:59;;;;;;;12.60;11.63;;;;;;;;;;5020317;28;20037;-67
2022/04/06 00:55:31;;;;;;;12.48;11.45;;;;;;;;;;5018801;28;20109;-67
2022/04/06 00:57:57;;;;;;;12.63;11.60;;;;;;;;;;5010501;28;20041;-67
2022/04/06 01:00:23;;;;;;;13.13;11.88;;;;;;;;;;5019946;28;20029;-67
2022/04/06 01:02:49;;;;;;;12.63;11.48;;;;;;;;;;5011770;28;20038;-67
2022/04/06 01:05:14;;;;;;;12.63;11.40;;;;;;;;;;5017094;28;20036;-67
2022/04/06 01:07:42;;;;;;;12.48;11.45;;;;;;;;;;5018016;28;20509;-67
2022/04/06 01:10:08;;;;;;;12.32;11.40;;;;;;;;;;5018426;28;20397;-67
2022/04/06 01:12:35;;;;;;;12.63;11.38;;;;;;;;;;5017659;28;20038;-67
2022/04/06 01:15:01;;;;;;;12.35;11.45;;;;;;;;;;5011675;28;20498;-67
2022/04/06 01:17:33;;;;;;;13.23;12.13;;;;;;;;;;5012992;28;20117;-67
2022/04/06 01:20:00;;;;;;;12.70;11.70;;;;;;;;;;5010815;28;20698;-66
2022/04/06 01:22:26;;;;;;;13.07;11.90;;;;;;;;;;5019751;28;20045;-66
2022/04/06 01:24:52;;;;;;;12.55;11.55;;;;;;;;;;5010710;28;20042;-67
2022/04/06 01:27:18;;;;;;;12.88;11.77;;;;;;;;;;5014577;28;20073;-66
2022/04/06 01:29:44;;;;;;;12.50;11.45;;;;;;;;;;5018061;28;20114;-69
2022/04/06 01:32:20;;;;;;;13.02;11.90;;;;;;;;;;5021909;28;20058;-67
2022/04/06 01:34:46;;;;;;;12.23;11.23;;;;;;;;;;5018811;28;20099;-67
2022/04/06 01:37:12;;;;;;;12.93;11.55;;;;;;;;;;5014742;28;20069;-67
2022/04/06 01:39:39;;;;;;;13.27;12.07;;;;;;;;;;5011061;28;20038;-67
2022/04/06 01:42:07;;;;;;;13.00;12.00;;;;;;;;;;5012578;28;20472;-67
2022/04/06 01:44:33;;;;;;;12.40;11.40;;;;;;;;;;5010396;28;20100;-67
2022/04/06 01:47:01;;;;;;;12.43;11.43;;;;;;;;;;5014919;28;20042;-67
2022/04/06 01:52:14;;;;;;;11.95;11.05;;;;;;;;;;5018694;28;20492;-67
2022/04/06 01:54:43;;;;;;;11.93;11.02;;;;;;;;;;5010316;28;20931;-67
2022/04/06 01:57:09;;;;;;;11.82;10.93;;;;;;;;;;5016858;28;20108;-67
2022/04/06 01:59:35;;;;;;;12.38;11.38;;;;;;;;;;5022935;28;20614;-69
2022/04/06 02:02:01;;;;;;;12.18;11.18;;;;;;;;;;5017736;28;20037;-67
2022/04/06 02:04:26;;;;;;;12.43;11.43;;;;;;;;;;5018886;28;20119;-67
2022/04/06 02:06:52;;;;;;;12.70;11.60;;;;;;;;;;5015687;28;20085;-67
2022/04/06 02:09:18;;;;;;;12.43;11.40;;;;;;;;;;5013940;28;20048;-67
2022/04/06 02:11:44;;;;;;;12.30;11.32;;;;;;;;;;5015348;28;20037;-67
2022/04/06 02:14:10;;;;;;;12.23;11.23;;;;;;;;;;5020273;28;20489;-67
2022/04/06 02:16:37;;;;;;;13.07;11.88;;;;;;;;;;5010272;28;20056;-67
2022/04/06 02:19:04;;;;;;;13.75;12.52;;;;;;;;;;5015578;28;20041;-67
2022/04/06 02:21:30;;;;;;;12.68;11.70;;;;;;;;;;5017237;28;20473;-67
2022/04/06 02:23:55;;;;;;;13.93;12.52;;;;;;;;;;5016245;28;20044;-67
2022/04/06 02:26:21;;;;;;;13.65;12.35;;;;;;;;;;5013279;28;20030;-67
2022/04/06 02:28:47;;;;;;;14.43;13.05;;;;;;;;;;5012036;28;20038;-67
2022/04/06 02:31:12;;;;;;;14.13;12.93;;;;;;;;;;5013792;28;20041;-67
2022/04/06 02:33:38;;;;;;;14.18;12.80;;;;;;;;;;5016176;28;20026;-67
2022/04/06 02:36:04;;;;;;;14.55;13.13;;;;;;;;;;5021541;28;20050;-67
2022/04/06 02:38:30;;;;;;;14.48;13.10;;;;;;;;;;5027300;28;20030;-67
2022/04/06 02:40:56;;;;;;;15.20;13.60;;;;;;;;;;5016382;28;20048;-67
2022/04/06 02:43:21;;;;;;;14.60;13.25;;;;;;;;;;5015827;28;20042;-67
2022/04/06 02:45:47;;;;;;;14.80;13.45;;;;;;;;;;5013934;28;20040;-67
2022/04/06 02:48:14;;;;;;;14.40;13.10;;;;;;;;;;5017726;28;20041;-67
2022/04/06 02:50:39;;;;;;;15.05;13.65;;;;;;;;;;5026456;28;20025;-67
2022/04/06 02:53:05;;;;;;;13.90;12.70;;;;;;;;;;5012441;28;20100;-67
2022/04/06 02:55:30;;;;;;;12.93;11.82;;;;;;;;;;5015939;28;20042;-67
2022/04/06 02:57:56;;;;;;;13.45;12.10;;;;;;;;;;5015539;28;20036;-67
2022/04/06 03:00:22;;;;;;;13.98;12.68;;;;;;;;;;5026159;28;20780;-67
2022/04/06 03:02:48;;;;;;;15.20;13.70;;;;;;;;;;5011718;28;20087;-67
2022/04/06 03:05:13;;;;;;;14.15;12.93;;;;;;;;;;5021405;28;20411;-67
2022/04/06 03:07:39;;;;;;;14.27;12.98;;;;;;;;;;5025656;28;20034;-67
2022/04/06 03:10:05;;;;;;;14.27;12.93;;;;;;;;;;5016755;28;20528;-67
2022/04/06 03:12:31;;;;;;;14.02;12.90;;;;;;;;;;5019687;28;20026;-67
2022/04/06 03:14:56;;;;;;;14.43;13.13;;;;;;;;;;5022756;28;20078;-67
2022/04/06 03:17:22;;;;;;;14.05;12.75;;;;;;;;;;5021938;28;20076;-67
2022/04/06 03:19:47;;;;;;;14.07;12.65;;;;;;;;;;5019343;28;20188;-67
2022/04/06 03:22:17;;;;;;;16.38;13.75;;;;;;;;;;5021462;28;20629;-67
2022/04/06 03:24:46;;;;;;;15.82;14.20;;;;;;;;;;5018279;28;20149;-67
2022/04/06 03:27:12;;;;;;;;;;;;;;;;;;5028175;28;20034;-67
2022/04/06 03:29:39;;;;;;;14.48;12.65;;;;;;;;;;5019021;28;19937;-67
2022/04/06 03:32:06;;;;;;;14.57;13.15;;;;;;;;;;5022522;28;20079;-67
2022/04/06 03:34:32;;;;;;;14.60;13.30;;;;;;;;;;5017922;28;20034;-67
2022/04/06 03:36:57;;;;;;;14.45;13.18;;;;;;;;;;5019598;28;20045;-67
2022/04/06 03:39:23;;;;;;;14.02;12.70;;;;;;;;;;5022767;28;20041;-67
2022/04/06 03:41:49;;;;;;;14.77;13.45;;;;;;;;;;5016086;28;20048;-67
2022/04/06 03:44:14;;;;;;;14.60;13.20;;;;;;;;;;5016795;28;20137;-67
2022/04/06 03:46:40;;;;;;;15.02;13.65;;;;;;;;;;5019052;23;20057;-75
2022/04/06 03:49:05;;;;;;;15.90;14.40;;;;;;;;;;5009458;28;20030;-75
2022/04/06 03:51:31;;;;;;;14.93;13.57;;;;;;;;;;5005667;28;20065;-74
2022/04/06 03:53:56;;;;;;;15.43;14.02;;;;;;;;;;5008679;28;20044;-75
2022/04/06 03:56:23;;;;;;;14.48;13.05;;;;;;;;;;5006205;28;20374;-75
2022/04/06 03:58:48;;;;;;;16.23;14.57;;;;;;;;;;4995479;28;20504;-75
2022/04/06 04:01:15;;;;;;;14.70;13.48;;;;;;;;;;4988992;28;20034;-75
2022/04/06 04:03:41;;;;;;;16.30;14.70;;;;;;;;;;4998182;28;20038;-75
2022/04/06 04:06:07;;;;;;;15.07;13.77;;;;;;;;;;4989976;28;20042;-75
2022/04/06 04:08:32;;;;;;;14.60;13.18;;;;;;;;;;4994268;28;20393;-75
2022/04/06 04:10:58;;;;;;;15.45;13.95;;;;;;;;;;4990498;28;20042;-75
2022/04/06 04:13:23;;;;;;;15.05;13.55;;;;;;;;;;4990896;28;20042;-75
2022/04/06 04:15:49;;;;;;;14.48;13.27;;;;;;;;;;4993894;28;20080;-75
2022/04/06 04:18:15;;;;;;;14.73;13.45;;;;;;;;;;4993921;28;20113;-75
2022/04/06 04:20:45;;;;;;;14.10;12.80;;;;;;;;;;4997409;28;20042;-75
2022/04/06 04:23:13;;;;;;;14.80;13.55;;;;;;;;;;4999684;28;20041;-75
2022/04/06 04:25:40;;;;;;;15.00;13.43;;;;;;;;;;4995325;28;20369;-75
2022/04/06 04:28:06;;;;;;;14.50;13.13;;;;;;;;;;4987950;28;20047;-75
2022/04/06 04:30:32;;;;;;;14.80;13.60;;;;;;;;;;4981111;28;20077;-75
2022/04/06 04:32:58;;;;;;;15.68;14.07;;;;;;;;;;4988467;28;20088;-75
2022/04/06 04:35:24;;;;;;;16.75;14.98;;;;;;;;;;4993937;28;20034;-75
2022/04/06 04:37:49;;;;;;;14.70;13.40;;;;;;;;;;4996768;28;20117;-75
2022/04/06 04:40:20;;;;;;;15.07;13.68;;;;;;;;;;4986980;28;20043;-75
2022/04/06 04:42:46;;;;;;;15.18;13.77;;;;;;;;;;4990399;28;20034;-75
2022/04/06 04:45:12;;;;;;;13.23;12.13;;;;;;;;;;4989046;28;20105;-75
2022/04/06 04:47:39;;;;;;;15.38;13.98;;;;;;;;;;4989692;28;20042;-75
2022/04/06 04:50:05;;;;;;;15.00;13.30;;;;;;;;;;4995134;28;20078;-75
2022/04/06 04:52:31;;;;;;;15.60;14.20;;;;;;;;;;4988498;28;20053;-74
2022/04/06 04:54:57;;;;;;;14.60;13.23;;;;;;;;;;4989915;28;20038;-75
2022/04/06 04:57:22;;;;;;;14.40;13.20;;;;;;;;;;5003588;28;20190;-75
2022/04/06 04:59:52;;;;;;;14.30;13.07;;;;;;;;;;4981295;28;20034;-75
2022/04/06 05:02:18;;;;;;;14.35;13.10;;;;;;;;;;4990015;28;20501;-75
2022/04/06 05:04:44;;;;;;;15.43;14.23;;;;;;;;;;4994875;28;20033;-75
2022/04/06 05:07:10;;;;;;;14.30;12.95;;;;;;;;;;4991591;28;20505;-75
2022/04/06 05:09:36;;;;;;;14.93;13.50;;;;;;;;;;4998336;28;20038;-75
2022/04/06 05:12:01;;;;;;;15.18;13.27;;;;;;;;;;4981637;28;20030;-74
2022/04/06 05:14:27;;;;;;;14.20;12.93;;;;;;;;;;4977614;28;20389;-75
2022/04/06 05:16:53;;;;;;;14.30;13.07;;;;;;;;;;4971279;28;20550;-75
2022/04/06 05:19:18;;;;;;;19.60;14.55;;;;;;;;;;4986097;28;20066;-75
2022/04/06 05:21:44;;;;;;;15.15;13.75;;;;;;;;;;4993849;28;20033;-75
2022/04/06 05:24:09;;;;;;;15.02;13.63;;;;;;;;;;4992638;28;20057;-75
2022/04/06 05:26:35;;;;;;;18.15;14.30;;;;;;;;;;4989703;28;20122;-75
2022/04/06 05:29:01;;;;;;;15.80;14.40;;;;;;;;;;4991644;28;20034;-75
2022/04/06 05:31:27;;;;;;;15.60;14.20;;;;;;;;;;4991855;28;20110;-75
2022/04/06 05:33:52;;;;;;;14.20;13.00;;;;;;;;;;4996184;28;20620;-75
2022/04/06 05:36:18;;;;;;;15.00;13.60;;;;;;;;;;4987823;28;20034;-75
2022/04/06 05:38:43;;;;;;;14.90;13.68;;;;;;;;;;4998619;28;20217;-75
2022/04/06 05:41:09;;;;;;;17.48;14.23;;;;;;;;;;4998583;28;20033;-75
2022/04/06 05:43:34;;;;;;;14.90;13.80;;;;;;;;;;4983736;28;20030;-75
2022/04/06 05:46:00;;;;;;;15.00;13.73;;;;;;;;;;4991879;28;20978;-75
2022/04/06 05:48:26;;;;;;;15.88;14.40;;;;;;;;;;4986959;28;20038;-76
2022/04/06 05:50:51;;;;;;;14.43;13.23;;;;;;;;;;4989458;28;20044;-75
2022/04/06 05:53:17;;;;;;;15.73;14.20;;;;;;;;;;4994572;28;20076;-75
2022/04/06 05:55:45;;;;;;;15.57;14.32;;;;;;;;;;4995241;28;20063;-75
2022/04/06 05:58:11;;;;;;;15.15;13.95;;;;;;;;;;4991988;28;20030;-75
2022/04/06 06:00:36;;;;;;;15.10;13.85;;;;;;;;;;4985074;28;20150;-75
2022/04/06 06:03:02;;;;;;;15.70;14.38;;;;;;;;;;4986976;28;20030;-74
2022/04/06 06:05:28;;;;;;;15.68;14.27;;;;;;;;;;4998952;28;20098;-74
2022/04/06 06:07:53;;;;;;;14.18;13.00;;;;;;;;;;4989485;28;20042;-74
2022/04/06 06:10:19;;;;;;;15.43;14.02;;;;;;;;;;4986596;28;20026;-74
2022/04/06 06:12:44;;;;;;;14.90;13.60;;;;;;;;;;4974036;28;20049;-76
2022/04/06 06:15:10;;;;;;;14.90;13.40;;;;;;;;;;4992139;28;20046;-74
2022/04/06 06:17:38;;;;;;;14.32;13.13;;;;;;;;;;4992029;28;20202;-76
2022/04/06 06:20:04;;;;;;;13.82;12.65;;;;;;;;;;4996636;28;20034;-75
2022/04/06 06:22:29;;;;;;;14.45;13.13;;;;;;;;;;4992288;28;20049;-76
2022/04/06 06:24:55;;;;;;;13.55;12.55;;;;;;;;;;4993002;28;20038;-76
2022/04/06 06:27:22;;;;;;;14.02;12.93;;;;;;;;;;5000674;28;20030;-76
2022/04/06 06:29:48;;;;;;;14.02;12.57;;;;;;;;;;4989104;28;20065;-76
2022/04/06 06:32:14;;;;;;;13.70;12.60;;;;;;;;;;4993951;28;20112;-76
2022/04/06 06:34:39;;;;;;;13.68;12.60;;;;;;;;;;5001737;28;20498;-75
2022/04/06 06:37:05;;;;;;;13.57;12.38;;;;;;;;;;4984375;28;20038;-76
2022/04/06 06:39:31;;;;;;;13.63;12.55;;;;;;;;;;4989201;28;20076;-75
2022/04/06 06:41:56;;;;;;;13.57;12.45;;;;;;;;;;4992038;28;20034;-76
2022/04/06 06:44:22;;;;;;;13.55;12.48;;;;;;;;;;4997325;28;20049;-76
2022/04/06 06:46:48;;;;;;;13.15;12.00;;;;;;;;;;4995035;28;20505;-76
2022/04/06 06:49:14;;;;;;;13.38;12.20;;;;;;;;;;4993936;28;20034;-76
2022/04/06 06:51:40;;;;;;;12.85;12.00;;;;;;;;;;5003420;28;20034;-76
2022/04/06 06:54:06;;;;;;;12.88;11.98;;;;;;;;;;4991224;28;20371;-75
2022/04/06 06:56:32;;;;;;;13.30;12.30;;;;;;;;;;4991590;28;20034;-75
2022/04/06 06:58:57;;;;;;;12.70;11.68;;;;;;;;;;4995441;28;20136;-76
2022/04/06 07:01:23;;;;;;;13.35;12.15;;;;;;;;;;4989837;28;20038;-76
2022/04/06 07:03:48;;;;;;;12.90;12.10;;;;;;;;;;4986904;28;20374;-76
2022/04/06 07:06:15;;;;;;;11.73;10.93;;;;;;;;;;4991392;28;20034;-75
2022/04/06 07:08:41;;;;;;;11.35;10.55;;;;;;;;;;4977814;28;20041;-76
2022/04/06 07:11:06;;;;;;;12.52;11.50;;;;;;;;;;4972754;28;20541;-75
2022/04/06 07:13:32;;;;;;;11.65;10.73;;;;;;;;;;4990085;28;20073;-76
2022/04/06 07:15:57;;;;;;;11.30;10.55;;;;;;;;;;4990508;28;20052;-76
2022/04/06 07:18:23;;;;;;;11.95;11.07;;;;;;;;;;4986957;28;20144;-76
2022/04/06 07:20:49;;;;;;;11.68;10.88;;;;;;;;;;4988746;28;20038;-76
2022/04/06 07:23:15;;;;;;;11.00;10.30;;;;;;;;;;4992677;28;20072;-76
2022/04/06 07:25:40;;;;;;;11.30;10.60;;;;;;;;;;4999072;28;20065;-75
2022/04/06 07:28:08;;;;;;;10.75;9.95;;;;;;;;;;4989466;28;20145;-75
2022/04/06 07:30:34;;;;;;;11.10;10.35;;;;;;;;;;4990683;28;20064;-76
2022/04/06 07:32:59;;;;;;;11.63;10.82;;;;;;;;;;4995269;28;20120;-76
2022/04/06 07:35:26;;;;;;;11.90;11.18;;;;;;;;;;4995690;28;20425;-76
2022/04/06 07:37:52;;;;;;;11.70;11.00;;;;;;;;;;4987913;28;20193;-76
2022/04/06 07:40:21;;;;;;;11.95;10.93;;;;;;;;;;4990590;28;20477;-75
2022/04/06 07:42:48;;;;;;;12.20;11.20;;;;;;;;;;4990286;28;20654;-76
2022/04/06 07:45:16;;;;;;;11.18;10.48;;;;;;;;;;4987690;28;20097;-76
2022/04/06 07:47:44;;;;;;;11.57;10.77;;;;;;;;;;4990787;28;20058;-76
2022/04/06 07:50:12;;;;;;;11.85;11.00;;;;;;;;;;5000214;28;20042;-75
2022/04/06 07:52:38;;;;;;;11.50;10.77;;;;;;;;;;4997074;28;20034;-76
2022/04/06 07:55:06;;;;;;;11.50;10.70;;;;;;;;;;4986969;28;20038;-76
2022/04/06 07:57:33;;;;;;;11.98;11.07;;;;;;;;;;4990412;28;20037;-76
2022/04/06 08:00:03;;;;;;;11.90;11.10;;;;;;;;;;4991991;28;20037;-76
2022/04/06 08:02:30;;;;;;;10.70;10.00;;;;;;;;;;4987893;28;20109;-76
2022/04/06 08:04:55;;;;;;;12.15;11.25;;;;;;;;;;4987658;28;20038;-76
2022/04/06 08:07:21;;;;;;;12.00;11.18;;;;;;;;;;4981986;28;20317;-76
2022/04/06 08:09:47;;;;;;;11.63;10.90;;;;;;;;;;4993479;28;20125;-76
2022/04/06 08:12:12;;;;;;;11.18;10.48;;;;;;;;;;5000411;28;20227;-76
2022/04/06 08:14:38;;;;;;;11.68;10.88;;;;;;;;;;4991707;28;20461;-75
2022/04/06 08:17:04;;;;;;;11.00;10.40;;;;;;;;;;4993157;28;20758;-75
2022/04/06 08:19:29;;;;;;;11.82;11.02;;;;;;;;;;4996542;28;20045;-76
2022/04/06 08:21:55;;;;;;;12.25;10.98;;;;;;;;;;4971518;28;20046;-76
2022/04/06 08:24:20;;;;;;;11.80;10.90;;;;;;;;;;4988288;28;20042;-76
2022/04/06 08:26:46;;;;;;;12.00;11.20;;;;;;;;;;5000600;28;20390;-76
2022/04/06 08:29:12;;;;;;;12.00;11.20;;;;;;;;;;4989401;28;20230;-76
2022/04/06 08:31:38;;;;;;;11.77;11.00;;;;;;;;;;4987089;28;20057;-76
2022/04/06 08:34:06;;;;;;;12.20;11.40;;;;;;;;;;4988502;28;20263;-75
2022/04/06 08:36:35;;;;;;;11.80;10.90;;;;;;;;;;4992588;28;20517;-76
2022/04/06 08:39:04;;;;;;;11.52;10.82;;;;;;;;;;4994281;28;20066;-76
2022/04/06 08:41:30;;;;;;;12.30;11.57;;;;;;;;;;4992413;28;20425;-76
2022/04/06 08:43:56;;;;;;;11.68;10.77;;;;;;;;;;4980206;28;20120;-76
2022/04/06 08:46:22;;;;;;;11.85;11.15;;;;;;;;;;4987931;28;20040;-76
2022/04/06 08:48:49;;;;;;;11.07;10.40;;;;;;;;;;4986743;28;20218;-76
2022/04/06 08:51:16;;;;;;;12.25;11.43;;;;;;;;;;4990948;28;20058;-75
2022/04/06 08:53:47;;;;;;;11.73;10.82;;;;;;;;;;4988946;28;20602;-76
2022/04/06 08:56:13;;;;;;;11.52;10.82;;;;;;;;;;4993456;28;20087;-76
2022/04/06 08:58:40;;;;;;;11.32;10.60;;;;;;;;;;4984995;28;20073;-76
2022/04/06 09:01:06;;;;;;;11.63;10.93;;;;;;;;;;4990644;28;20062;-77
2022/04/06 09:03:32;;;;;;;11.48;10.68;;;;;;;;;;4991816;28;20118;-77
2022/04/06 09:06:12;;;;;;;11.13;10.48;;;;;;;;;;4985322;28;20037;-77
2022/04/06 09:08:40;;;;;;;11.48;10.80;;;;;;;;;;4973803;28;20099;-77
2022/04/06 09:11:10;;;;;;;11.77;10.98;;;;;;;;;;5006091;28;20400;-76
2022/04/06 09:13:38;;;;;;;11.40;10.60;;;;;;;;;;4991355;28;20030;-76
2022/04/06 09:16:07;;;;;;;11.13;10.43;;;;;;;;;;4987407;28;20034;-76
2022/04/06 09:18:48;;;;;;;10.73;10.13;;;;;;;;;;4970627;28;20041;-77
2022/04/06 09:21:18;;;;;;;11.75;11.02;;;;;;;;;;4993612;28;20042;-77
2022/04/06 09:23:48;;;;;;;11.15;10.55;;;;;;;;;;4983353;28;20108;-76
2022/04/06 09:26:16;;;;;;;10.57;9.98;;;;;;;;;;4970771;28;20038;-77
2022/04/06 09:28:46;;;;;;;10.60;9.98;;;;;;;;;;4981470;28;20034;-77
2022/04/06 09:31:16;;;;;;;10.80;10.10;;;;;;;;;;4981226;28;20084;-77
2022/04/06 09:33:53;;;;;;;10.98;10.27;;;;;;;;;;4980788;28;20035;-76
2022/04/06 09:36:20;;;;;;;10.95;10.18;;;;;;;;;;4982807;28;20034;-76
2022/04/06 09:38:51;;;;;;;10.63;10.02;;;;;;;;;;4983032;28;20064;-76
2022/04/06 09:41:18;;;;;;;10.57;9.88;;;;;;;;;;4985603;28;20034;-76
2022/04/06 09:43:45;;;;;;;10.60;9.90;;;;;;;;;;4985160;28;20039;-76
2022/04/06 09:49:09;;;;;;;10.80;9.90;;;;;;;;;;4982126;28;20034;-76
2022/04/06 09:51:39;;;;;;;9.90;9.20;;;;;;;;;;4985274;28;20066;-76
2022/04/06 09:54:06;;;;;;;9.25;8.75;;;;;;;;;;4986710;28;20052;-74
2022/04/06 09:56:33;;;;;;;9.90;9.38;;;;;;;;;;4987345;28;20386;-75
2022/04/06 09:58:59;;;;;;;10.07;9.43;;;;;;;;;;4987454;28;20497;-74
2022/04/06 10:01:37;;;;;;;9.60;9.10;;;;;;;;;;4989979;28;20113;-76
2022/04/06 10:04:05;;;;;;;9.77;9.10;;;;;;;;;;4995702;28;20041;-74
2022/04/06 10:06:35;;;;;;;10.10;9.55;;;;;;;;;;4986602;28;20061;-73
2022/04/06 10:09:02;;;;;;;10.10;9.40;;;;;;;;;;4991012;28;20575;-73
2022/04/06 10:11:28;;;;;;;10.95;10.18;;;;;;;;;;4996292;28;20037;-74
2022/04/06 10:13:56;;;;;;;9.98;9.38;;;;;;;;;;4988169;28;20042;-74
2022/04/06 10:16:23;;;;;;;9.82;9.25;;;;;;;;;;4988778;28;20084;-74
2022/04/06 10:18:51;;;;;;;9.68;9.02;;;;;;;;;;4993245;28;20081;-74
2022/04/06 10:21:48;;;;;;;10.10;9.52;;;;;;;;;;4996567;28;20421;-74
2022/04/06 10:24:33;;;;;;;10.23;9.63;;;;;;;;;;4989721;28;20045;-74
2022/04/06 10:27:15;;;;;;;9.82;9.23;;;;;;;;;;4984079;28;20050;-74
2022/04/06 10:30:06;;;;;;;10.05;9.45;;;;;;;;;;4983054;28;20184;-74
2022/04/06 10:32:35;;;;;;;9.98;9.38;;;;;;;;;;4986346;28;20091;-75
2022/04/06 10:35:21;;;;;;;9.75;9.13;;;;;;;;;;4988915;28;20088;-75
2022/04/06 10:37:48;;;;;;;10.43;9.82;;;;;;;;;;4997413;28;20038;-74
2022/04/06 10:40:14;;;;;;;9.65;9.07;;;;;;;;;;4984596;28;20034;-75
2022/04/06 10:42:42;;;;;;;10.32;9.73;;;;;;;;;;4988150;28;20038;-75
2022/04/06 10:45:25;;;;;;;9.57;9.07;;;;;;;;;;4987879;28;20038;-75
2022/04/06 10:48:14;;;;;;;10.70;10.10;;;;;;;;;;4987296;28;20112;-75
2022/04/06 10:50:42;;;;;;;10.20;9.70;;;;;;;;;;4990236;28;20044;-75
2022/04/06 10:53:22;;;;;;;10.27;9.68;;;;;;;;;;4992256;28;20038;-75
2022/04/06 10:56:06;;;;;;;10.48;9.77;;;;;;;;;;4979048;28;20041;-76
2022/04/06 10:58:54;;;;;;;10.93;10.23;;;;;;;;;;4989163;28;20041;-75
2022/04/06 11:01:29;;;;;;;10.32;9.50;;;;;;;;;;4987458;28;20034;-75
2022/04/06 11:04:04;;;;;;;9.75;9.25;;;;;;;;;;4988665;28;20061;-75
2022/04/06 11:07:03;;;;;;;9.43;8.82;;;;;;;;;;4991603;28;20042;-75
2022/04/06 11:12:25;;;;;;;10.30;9.70;;;;;;;;;;4989233;28;20131;-74
2022/04/06 11:15:00;;;;;;;10.32;9.73;;;;;;;;;;4996101;28;20049;-75
2022/04/06 11:17:35;;;;;;;10.02;9.45;;;;;;;;;;4988631;28;20030;-75
2022/04/06 11:20:10;;;;;;;9.60;9.10;;;;;;;;;;4994599;28;20108;-75
2022/04/06 11:22:43;;;;;;;9.60;9.05;;;;;;;;;;4986477;28;20048;-74
2022/04/06 11:25:14;;;;;;;9.82;9.32;;;;;;;;;;4986321;28;20038;-75
2022/04/06 11:27:42;;;;;;;10.25;9.40;;;;;;;;;;4991548;28;20041;-75
2022/04/06 11:30:12;;;;;;;9.65;9.15;;;;;;;;;;4993408;28;20042;-75
2022/04/06 11:32:39;;;;;;;9.48;8.88;;;;;;;;;;4989873;28;20113;-75
2022/04/06 11:35:07;;;;;;;9.38;8.88;;;;;;;;;;4993822;28;20629;-75
2022/04/06 11:37:50;;;;;;;10.02;9.43;;;;;;;;;;4988240;28;20034;-75
2022/04/06 11:40:17;;;;;;;10.02;9.50;;;;;;;;;;4989357;28;20038;-74
2022/04/06 11:42:49;;;;;;;10.05;9.45;;;;;;;;;;4989179;28;20058;-75
2022/04/06 11:45:23;;;;;;;10.07;9.55;;;;;;;;;;4972754;28;20034;-75
2022/04/06 11:47:54;;;;;;;9.50;9.00;;;;;;;;;;4982087;28;20045;-74
2022/04/06 11:50:20;;;;;;;9.93;9.43;;;;;;;;;;4988362;28;20074;-74
2022/04/06 11:52:46;;;;;;;10.30;9.70;;;;;;;;;;4991530;28;20037;-74
2022/04/06 11:55:12;;;;;;;9.88;9.38;;;;;;;;;;5001638;28;20064;-73
2022/04/06 11:57:39;;;;;;;10.38;9.82;;;;;;;;;;5003679;28;20485;-74
2022/04/06 12:00:08;;;;;;;10.00;9.48;;;;;;;;;;4989948;28;20030;-75
2022/04/06 12:02:47;;;;;;;9.13;8.63;;;;;;;;;;4995015;28;20042;-74
2022/04/06 12:05:13;;;;;;;;;;;;;;;;;;4988563;28;20558;-75
2022/04/06 12:07:38;;;;;;;10.05;9.55;;;;;;;;;;4988139;28;19932;-75
2022/04/06 12:10:04;;;;;;;10.52;9.93;;;;;;;;;;4989441;28;20053;-74
2022/04/06 12:12:30;;;;;;;10.32;9.65;;;;;;;;;;4991601;28;20043;-76
2022/04/06 12:14:56;;;;;;;10.82;10.02;;;;;;;;;;4993030;28;20064;-75
2022/04/06 12:17:22;;;;;;;10.65;9.98;;;;;;;;;;4985772;28;20476;-77
2022/04/06 12:19:48;;;;;;;10.43;9.82;;;;;;;;;;4992136;28;20042;-77
2022/04/06 12:22:14;;;;;;;9.85;9.35;;;;;;;;;;4987565;28;20039;-76
2022/04/06 12:24:46;;;;;;;10.80;10.20;;;;;;;;;;4994150;28;20038;-77
2022/04/06 12:27:28;;;;;;;9.60;9.10;;;;;;;;;;4974851;28;20463;-76
2022/04/06 12:30:10;;;;;;;9.40;8.90;;;;;;;;;;4986906;28;20120;-73
2022/04/06 12:32:45;;;;;;;10.65;10.05;;;;;;;;;;4988063;28;20117;-75
2022/04/06 12:35:23;;;;;;;9.73;9.23;;;;;;;;;;4990674;28;20125;-74
2022/04/06 12:37:50;;;;;;;9.93;9.43;;;;;;;;;;4966305;28;20096;-74
2022/04/06 12:40:23;;;;;;;10.52;9.93;;;;;;;;;;4974132;28;20034;-75
2022/04/06 12:42:50;;;;;;;11.27;10.48;;;;;;;;;;4990979;28;20515;-76
2022/04/06 12:45:18;;;;;;;10.68;10.07;;;;;;;;;;4989470;28;20026;-76
2022/04/06 12:47:45;;;;;;;9.43;8.93;;;;;;;;;;4987341;28;20038;-76
2022/04/06 12:50:11;;;;;;;10.20;9.70;;;;;;;;;;4988450;28;20038;-77
2022/04/06 12:52:37;;;;;;;10.70;10.00;;;;;;;;;;4997148;28;20042;-77
2022/04/06 12:55:13;;;;;;;10.45;9.75;;;;;;;;;;4987754;28;20501;-75
2022/04/06 12:57:39;;;;;;;10.45;9.85;;;;;;;;;;4989843;28;20046;-74
2022/04/06 13:00:13;;;;;;;10.27;9.70;;;;;;;;;;4991681;28;20033;-74
2022/04/06 13:02:46;;;;;;;9.43;8.93;;;;;;;;;;4984375;28;20634;-74
2022/04/06 13:05:13;;;;;;;9.98;9.48;;;;;;;;;;4971077;28;20038;-74
2022/04/06 13:07:44;;;;;;;9.65;9.15;;;;;;;;;;4992620;28;20402;-74
2022/04/06 13:10:15;;;;;;;10.00;9.30;;;;;;;;;;4985370;28;20091;-75
2022/04/06 13:12:44;;;;;;;9.65;9.02;;;;;;;;;;4970545;28;20132;-74
2022/04/06 13:15:13;;;;;;;9.48;8.98;;;;;;;;;;4993532;28;20548;-74
2022/04/06 13:17:40;;;;;;;10.63;9.90;;;;;;;;;;4988712;28;20042;-74
2022/04/06 13:20:11;;;;;;;9.73;9.23;;;;;;;;;;4984341;28;20049;-74
2022/04/06 13:22:38;;;;;;;10.80;10.20;;;;;;;;;;4986662;28;20054;-74
2022/04/06 13:25:05;;;;;;;8.88;8.38;;;;;;;;;;4990399;28;20034;-73
2022/04/06 13:27:31;;;;;;;9.90;9.18;;;;;;;;;;4991927;28;20042;-74
2022/04/06 13:29:58;;;;;;;9.68;9.07;;;;;;;;;;4989863;28;20092;-73
2022/04/06 13:32:25;;;;;;;9.60;9.10;;;;;;;;;;4988101;28;20044;-73
2022/04/06 13:34:50;;;;;;;10.00;9.40;;;;;;;;;;4975241;28;20042;-73
2022/04/06 13:37:17;;;;;;;10.27;9.70;;;;;;;;;;4991871;28;20045;-73
2022/04/06 13:39:42;;;;;;;9.75;9.25;;;;;;;;;;4984985;28;20390;-73
2022/04/06 13:42:09;;;;;;;9.18;8.68;;;;;;;;;;4987391;28;20034;-73
2022/04/06 13:44:35;;;;;;;9.25;8.75;;;;;;;;;;4984472;28;20437;-73
2022/04/06 13:47:02;;;;;;;9.10;8.55;;;;;;;;;;4988109;28;20040;-73
2022/04/06 13:49:27;;;;;;;9.82;9.30;;;;;;;;;;4987201;28;20669;-75
2022/04/06 13:51:56;;;;;;;9.82;9.23;;;;;;;;;;4995927;28;20046;-74
2022/04/06 13:54:23;;;;;;;9.73;9.23;;;;;;;;;;4970866;28;20084;-75
2022/04/06 13:56:49;;;;;;;9.60;9.10;;;;;;;;;;4990997;28;20034;-75
2022/04/06 13:59:16;;;;;;;9.40;8.90;;;;;;;;;;4990921;28;20038;-75
2022/04/06 14:01:43;;;;;;;10.98;10.38;;;;;;;;;;4990670;28;20125;-74
2022/04/06 14:04:09;;;;;;;9.60;9.10;;;;;;;;;;4984267;28;20034;-74
2022/04/06 14:06:35;;;;;;;10.30;9.38;;;;;;;;;;4988893;28;20452;-75
2022/04/06 14:09:02;;;;;;;9.93;9.38;;;;;;;;;;4992990;28;20517;-74
2022/04/06 14:11:29;;;;;;;9.98;9.30;;;;;;;;;;4974297;28;20035;-74
2022/04/06 14:13:55;;;;;;;9.88;9.18;;;;;;;;;;4982006;28;20027;-75
2022/04/06 14:16:21;;;;;;;9.45;8.85;;;;;;;;;;4989265;28;20118;-74
2022/04/06 14:18:48;;;;;;;9.85;9.35;;;;;;;;;;4991182;28;20371;-75
2022/04/06 14:21:14;;;;;;;9.25;8.65;;;;;;;;;;4991457;28;20031;-74
2022/04/06 14:23:41;;;;;;;10.43;9.73;;;;;;;;;;4985700;28;20042;-74
2022/04/06 14:26:10;;;;;;;10.35;9.75;;;;;;;;;;4988883;28;20485;-76
2022/04/06 14:28:38;;;;;;;10.93;10.23;;;;;;;;;;4994033;28;20042;-74
2022/04/06 14:31:04;;;;;;;10.57;9.98;;;;;;;;;;4987713;28;20640;-74
2022/04/06 14:33:31;;;;;;;10.15;9.55;;;;;;;;;;4989920;28;20042;-74
2022/04/06 14:35:56;;;;;;;10.27;9.57;;;;;;;;;;4992145;28;20069;-74